Latest Weather Observations for Badgerys Creek

IDN60801

Issued at 2:33 am EST Sunday 24 July 2016 (issued every 30 minutes, with the page automatically refreshed every 10 minutes)

About weather observations | Map of weather stations | Latest weather observations for NSW | Other Formats
Station Details ID: 067108 Name: BADGERYS CREEK AWS Lat: -33.90 Lon: 150.73 Height: 81.2 m
Data from the previous 72 hours. | See also: Recent months at Badgerys Creek
Date/Time
EST
Temp
°C
App
Temp
°C
Dew
Point
°C
Rel
Hum
%
Delta-T
°C
Wind Press
QNH
hPa
Press
MSL
hPa
Rain since
9am
mm
Dir  Spd
km/h
Gust
km/h
Spd
kts
Gust
kts
24/02:30am 6.3 3.0 -1.3 58 2.9 SW 6 9 3 5 1014.6 1014.7 0.0
24/02:00am 6.8 3.3 -1.3 56 3.1 SW 7 9 4 5 1014.6 1014.7 0.0
24/01:30am 7.0 2.4 -0.9 57 3.0 SW 13 22 7 12 1014.6 1014.7 0.0
24/01:00am 7.2 2.2 -1.0 56 3.1 SW 15 17 8 9 1014.3 1014.4 0.0
24/12:30am 7.2 2.6 -0.7 57 3.0 SW 13 17 7 9 1014.2 1014.3 0.0
24/12:00am 8.1 3.8 -1.4 51 3.6 SSW 11 15 6 8 1013.9 1014.0 0.0
 
Date/Time
EST
Temp
°C
App
Temp
°C
Dew
Point
°C
Rel
Hum
%
Delta-T
°C
Wind Press
QNH
hPa
Press
MSL
hPa
Rain since
9am
mm
Dir  Spd
km/h
Gust
km/h
Spd
kts
Gust
kts
23/11:30pm 8.7 3.0 -1.1 50 3.8 SW 19 24 10 13 1013.7 1013.8 0.0
23/11:00pm 8.7 4.2 -0.3 53 3.6 SW 13 17 7 9 1013.2 1013.3 0.0
23/10:30pm 8.9 4.1 0.1 54 3.5 SW 15 24 8 13 1012.9 1013.0 0.0
23/10:00pm 9.3 4.2 1.0 56 3.4 SW 17 24 9 13 1012.6 1012.7 0.0
23/09:30pm 8.6 4.5 2.0 63 2.8 SW 13 20 7 11 1011.6 1011.7 0.0
23/09:00pm 8.3 5.7 0.8 59 3.0 E 4 7 2 4 1011.1 1011.2 0.0
23/08:30pm 9.6 6.9 0.5 53 3.7 E 4 9 2 5 1010.7 1010.8 0.0
23/08:00pm 9.0 6.7 0.7 56 3.4 SSW 2 6 1 3 1010.3 1010.4 0.0
23/07:30pm 9.3 5.8 1.0 56 3.4 SW 9 13 5 7 1009.5 1009.6 0.0
23/07:00pm 9.3 5.3 0.7 55 3.5 WSW 11 15 6 8 1008.6 1008.7 0.0
23/06:30pm 11.4 8.3 0.2 46 4.6 WSW 6 11 3 6 1008.4 1008.5 0.0
23/06:00pm 12.1 6.9 0.2 44 4.9 W 17 28 9 15 1007.5 1007.5 0.0
23/05:30pm 13.1 6.1 -0.2 40 5.5 W 26 41 14 22 1006.7 1006.7 0.0
23/05:00pm 13.3 5.7 0.3 41 5.5 W 30 43 16 23 1006.3 1006.3 0.0
23/04:30pm 14.3 7.8 0.2 38 6.0 W 24 39 13 21 1005.9 1005.9 0.0
23/04:00pm 15.0 8.3 1.2 39 6.0 W 26 37 14 20 1005.2 1005.2 0.0
23/03:36pm 15.4 7.5 0.8 37 6.3 W 32 50 17 27 1004.6 1004.7 0.0
23/03:30pm 15.4 7.2 0.4 36 6.4 WNW 33 46 18 25 1004.5 1004.6 0.0
23/03:00pm 16.1 8.2 1.0 36 6.6 W 32 63 17 34 1004.1 1004.2 0.0
23/02:37pm 16.3 8.8 1.2 36 6.6 W 30 52 16 28 1003.5 1003.6 0.0
23/02:30pm 16.8 10.6 2.4 38 6.5 W 24 39 13 21 1003.6 1003.7 0.0
23/02:07pm 16.3 9.3 2.0 38 6.4 WNW 28 52 15 28 1003.3 1003.4 0.0
23/02:00pm 16.7 11.5 3.4 41 6.2 WNW 20 32 11 17 1003.4 1003.5 0.0
23/01:30pm 16.5 9.7 2.9 40 6.2 WNW 28 46 15 25 1003.1 1003.2 0.0
23/01:00pm 16.0 6.7 3.1 42 5.9 WNW 41 65 22 35 1002.7 1002.8 0.0
23/12:30pm 15.8 6.9 3.3 43 5.7 WNW 39 57 21 31 1002.9 1003.0 0.0
23/12:00pm 15.9 7.1 3.7 44 5.7 W 39 61 21 33 1003.1 1003.2 0.0
23/11:54am 15.8 6.9 2.9 42 5.9 W 39 61 21 33 1003.1 1003.2 0.0
23/11:30am 15.4 7.1 2.2 41 5.9 WNW 35 50 19 27 1003.6 1003.7 0.0
23/11:03am 15.3 7.4 2.1 41 5.9 WNW 33 52 18 28 1003.9 1004.0 0.0
23/11:00am 15.3 7.7 2.8 43 5.7 WNW 32 43 17 23 1004.0 1004.1 0.0
23/10:46am 15.1 8.2 2.3 42 5.7 W 28 46 15 25 1004.4 1004.5 0.0
23/10:30am 15.1 8.5 2.0 41 5.8 WNW 26 46 14 25 1004.5 1004.6 0.0
23/10:00am 14.8 7.9 2.4 43 5.6 WNW 28 44 15 24 1004.2 1004.3 0.0
23/09:30am 13.9 5.2 1.9 44 5.2 WNW 37 57 20 31 1003.9 1004.0 0.0
23/09:06am 13.9 6.6 2.2 45 5.2 WNW 30 48 16 26 1003.8 1003.9 0.0
23/09:00am 13.8 6.1 2.1 45 5.2 WNW 32 43 17 23 1003.8 1003.9 3.2
23/08:30am 13.3 5.5 1.9 46 5.0 WNW 32 48 17 26 1003.5 1003.6 3.2
23/08:00am 13.6 6.5 1.6 44 5.2 W 28 50 15 27 1003.5 1003.6 3.2
23/07:56am 13.7 6.5 1.0 42 5.4 W 28 50 15 27 1003.4 1003.5 3.2
23/07:30am 13.6 7.9 0.6 41 5.5 W 20 33 11 18 1002.9 1003.0 3.2
23/07:00am 13.7 5.9 1.4 43 5.3 W 32 54 17 29 1002.4 1002.5 3.2
23/06:30am 14.2 6.8 2.1 44 5.3 W 30 50 16 27 1001.6 1001.7 3.2
23/06:00am 14.2 7.4 5.3 55 4.2 W 30 50 16 27 1000.9 1001.0 3.2
23/05:34am 14.5 7.8 5.6 55 4.2 W 30 48 16 26 1000.3 1000.4 3.2
23/05:30am 14.6 7.5 5.4 54 4.4 W 32 48 17 26 1000.2 1000.3 3.2
23/05:12am 14.6 7.4 5.9 56 4.2 WSW 33 63 18 34 999.5 999.6 3.2
23/05:00am 15.7 10.0 5.0 49 5.1 W 24 33 13 18 999.5 999.6 3.2
23/04:30am 15.7 10.1 5.6 51 4.9 WNW 24 37 13 20 998.9 999.0 3.2
23/04:00am 16.2 9.1 5.5 49 5.2 WNW 32 54 17 29 998.6 998.7 3.2
23/03:52am 16.2 9.9 5.5 49 5.1 W 28 54 15 29 998.5 998.6 3.2
23/03:30am 16.2 9.9 5.5 49 5.1 W 28 41 15 22 998.5 998.6 3.2
23/03:11am 16.3 9.9 5.3 48 5.3 W 28 46 15 25 998.3 998.4 3.2
23/03:00am 16.5 9.7 5.2 47 5.5 W 30 43 16 23 998.2 998.3 3.2
23/02:30am 17.6 11.4 6.2 47 5.6 WNW 28 54 15 29 997.9 997.9 3.2
23/02:29am 17.5 11.3 6.1 47 5.6 WNW 28 54 15 29 997.7 997.7 3.2
23/02:00am 17.5 13.0 8.6 56 4.6 NW 22 30 12 16 997.4 997.4 3.2
23/01:30am 17.1 11.7 9.5 61 4.0 W 28 43 15 23 997.6 997.6 3.2
23/01:05am 17.7 12.8 11.3 66 3.5 W 28 46 15 25 998.2 998.3 3.2
23/01:00am 18.3 13.0 11.4 64 3.8 W 30 46 16 25 998.2 998.3 3.2
23/12:58am 18.2 13.4 11.5 65 3.7 W 28 46 15 25 998.1 998.2 3.2
23/12:37am 17.8 15.9 15.2 85 1.5 W 19 39 10 21 997.9 997.9 3.2
23/12:30am 17.0 17.6 16.7 98 0.2 W 9 17 5 9 997.8 997.8 3.2
23/12:00am 17.2 16.7 17.0 99 0.1 SW 15 24 8 13 997.8 997.8 2.8
 
Date/Time
EST
Temp
°C
App
Temp
°C
Dew
Point
°C
Rel
Hum
%
Delta-T
°C
Wind Press
QNH
hPa
Press
MSL
hPa
Rain since
9am
mm
Dir  Spd
km/h
Gust
km/h
Spd
kts
Gust
kts
22/11:30pm 18.7 16.7 16.5 87 1.3 SW 22 30 12 16 997.4 997.4 0.0
22/11:00pm 19.5 20.0 13.9 70 3.3 E 4 6 2 3 996.8 996.8 0.0
22/10:30pm 19.8 19.8 13.7 68 3.5 SE 6 9 3 5 996.8 996.8 0.0
22/10:00pm 19.8 19.1 13.3 66 3.7 NNE 9 13 5 7 997.0 997.0 0.0
22/09:30pm 20.9 19.9 13.4 62 4.3 N 11 15 6 8 997.4 997.4 0.0
22/09:00pm 21.3 20.3 13.5 61 4.5 N 11 17 6 9 998.2 998.3 0.0
22/08:30pm 21.1 19.6 13.0 60 4.6 N 13 22 7 12 998.8 998.9 0.0
22/08:00pm 21.2 19.6 12.9 59 4.8 NNW 13 26 7 14 999.3 999.4 0.0
22/07:30pm 21.7 19.7 12.8 57 5.1 NNW 15 24 8 13 999.3 999.4 0.0
22/07:00pm 20.7 19.7 12.4 59 4.7 NNW 9 17 5 9 999.0 999.1 0.0
22/06:30pm 21.5 19.5 12.6 57 5.1 NNW 15 22 8 12 999.2 999.3 0.0
22/06:00pm 22.4 19.1 12.9 55 5.5 NNW 22 35 12 19 999.6 999.7 0.0
22/05:30pm 22.3 19.7 13.1 56 5.3 NNW 19 30 10 16 1000.0 1000.1 0.0
22/05:00pm 22.4 19.7 13.5 57 5.2 NW 20 30 11 16 1000.2 1000.3 0.0
22/04:30pm 22.9 19.6 13.9 57 5.3 NW 24 37 13 20 999.9 1000.0 0.0
22/04:00pm 23.8 19.7 13.9 54 5.8 NW 28 41 15 22 1000.2 1000.3 0.0
22/03:38pm 24.1 19.1 13.9 53 6.0 NW 33 52 18 28 1000.5 1000.6 0.0
22/03:30pm 24.2 19.4 14.0 53 6.0 NW 32 48 17 26 1000.9 1001.0 0.0
22/03:00pm 24.8 20.0 14.0 51 6.4 NW 32 44 17 24 1001.1 1001.2 0.0
22/02:30pm 25.1 21.0 13.9 49 6.6 NW 28 46 15 25 1001.3 1001.4 0.0
22/02:16pm 25.0 21.0 14.2 51 6.4 NW 28 46 15 25 1001.5 1001.6 0.0
22/02:00pm 25.1 20.6 13.9 49 6.7 WNW 30 46 16 25 1001.8 1001.9 0.0
22/01:33pm 25.0 20.6 14.2 51 6.4 NW 30 48 16 26 1002.1 1002.2 0.0
22/01:30pm 25.3 20.6 14.4 50 6.5 NW 32 48 17 26 1002.2 1002.3 0.0
22/01:00pm 24.2 20.2 14.0 53 6.0 NW 28 52 15 28 1002.7 1002.8 0.0
22/12:59pm 24.0 19.9 13.8 53 6.0 NW 28 52 15 28 1002.8 1002.9 0.0
22/12:30pm 24.9 23.5 14.4 52 6.3 NW 15 26 8 14 1003.3 1003.4 0.0
22/12:00pm 24.1 23.7 16.1 61 4.9 N 13 24 7 13 1004.0 1004.1 0.0
22/11:30am 22.5 20.6 15.8 66 4.0 N 20 28 11 15 1004.9 1004.9 0.0
22/11:00am 20.8 22.2 16.4 76 2.7 NNE 4 7 2 4 1005.8 1005.8 0.0
22/10:30am 19.2 18.1 15.3 78 2.3 N 15 20 8 11 1006.7 1006.7 0.0
22/10:00am 17.5 18.0 15.5 88 1.2 N 7 13 4 7 1007.7 1007.7 0.0
22/09:30am 16.8 15.3 15.2 90 0.9 N 17 22 9 12 1008.0 1008.0 0.0
22/09:00am 15.1 13.9 15.1 100 0.0 N 15 20 8 11 1008.5 1008.6 0.0
22/08:30am 13.1 12.4 13.1 100 0.0 N 9 13 5 7 1009.2 1009.3 0.0
22/08:00am 9.9 9.5 9.9 100 0.0 NNE 2 7 1 4 1009.6 1009.7 0.0
22/07:30am 8.2 7.0 8.2 100 0.0 NNE 4 4 2 2 1010.2 1010.3 0.0
22/07:00am 8.3 7.9 8.3 100 0.0 CALM 0 0 0 0 1010.1 1010.2 0.0
22/06:30am 8.6 7.9 8.6 100 0.0 NNE 2 4 1 2 1010.4 1010.5 0.0
22/06:00am 8.8 7.4 8.8 100 0.0 NNE 6 13 3 7 1010.6 1010.7 0.0
22/05:30am 9.8 9.8 9.8 100 0.0 CALM 0 0 0 0 1011.1 1011.2 0.0
22/05:00am 9.8 9.8 9.8 100 0.0 CALM 0 0 0 0 1011.2 1011.3 0.0
22/04:30am 9.7 9.7 9.7 100 0.0 CALM 0 0 0 0 1011.3 1011.4 0.0
22/04:00am 9.5 9.4 9.5 100 0.0 CALM 0 0 0 0 1011.3 1011.4 0.0
22/03:30am 9.7 8.9 9.7 100 0.0 NNE 4 6 2 3 1011.8 1011.9 0.0
22/03:00am 9.2 8.7 9.2 100 0.0 NNE 2 4 1 2 1012.6 1012.7 0.0
22/02:30am 9.0 8.8 9.0 100 0.0 CALM 0 0 0 0 1013.1 1013.2 0.0
22/02:00am 9.1 8.5 9.1 100 0.0 NNE 2 6 1 3 1013.3 1013.4 0.0
22/01:30am 9.1 8.9 9.1 100 0.0 CALM 0 0 0 0 1013.6 1013.7 0.0
22/01:00am 8.8 8.5 8.8 100 0.0 CALM 0 2 0 1 1013.6 1013.7 0.0
22/12:30am 9.7 8.5 9.7 100 0.0 NNE 6 6 3 3 1014.2 1014.3 0.0
22/12:00am 10.3 9.3 10.3 100 0.0 NNE 6 6 3 3 1014.5 1014.6 0.0
 
Date/Time
EST
Temp
°C
App
Temp
°C
Dew
Point
°C
Rel
Hum
%
Delta-T
°C
Wind Press
QNH
hPa
Press
MSL
hPa
Rain since
9am
mm
Dir  Spd
km/h
Gust
km/h
Spd
kts
Gust
kts
21/11:30pm 10.0 9.3 10.0 100 0.0 NNE 4 4 2 2 1015.0 1015.1 0.0
21/11:00pm 11.0 10.2 11.0 100 0.0 NNE 6 6 3 3 1015.0 1015.1 0.0
21/10:30pm 10.9 10.4 10.9 100 0.0 NNE 4 4 2 2 1015.2 1015.3 0.0
21/10:00pm 11.2 11.6 11.2 100 0.0 CALM 0 0 0 0 1015.2 1015.3 0.0
21/09:30pm 11.5 12.0 11.5 100 0.0 CALM 0 0 0 0 1015.5 1015.6 0.0
21/09:00pm 12.1 12.4 12.1 100 0.0 NNE 2 4 1 2 1015.4 1015.5 0.0
21/08:30pm 12.8 12.9 12.8 100 0.0 NNE 4 4 2 2 1016.0 1016.1 0.0
21/08:00pm 13.2 13.1 13.2 100 0.0 NNE 6 7 3 4 1015.9 1016.0 0.0
21/07:30pm 13.1 13.7 13.1 100 0.0 NNE 2 4 1 2 1015.7 1015.8 0.0
21/07:00pm 13.9 14.7 13.6 98 0.2 NNE 2 4 1 2 1015.6 1015.7 0.0
21/06:30pm 14.7 15.1 13.7 94 0.6 NNE 4 6 2 3 1015.2 1015.3 0.0
21/06:00pm 15.4 15.8 13.8 90 0.9 NNE 4 4 2 2 1015.3 1015.4 0.0
21/05:30pm 16.0 16.7 13.5 85 1.4 NNE 2 4 1 2 1015.3 1015.4 0.0
21/05:00pm 17.1 17.1 13.6 80 2.0 NNE 6 7 3 4 1015.0 1015.1 0.0
21/04:30pm 18.3 18.4 13.8 75 2.6 NNE 6 7 3 4 1015.1 1015.2 0.0
21/04:00pm 19.1 19.2 13.9 72 3.0 NNE 6 7 3 4 1015.0 1015.1 0.0
21/03:30pm 19.5 19.7 14.3 72 3.0 NE 6 11 3 6 1015.2 1015.3 0.0
21/03:00pm 18.6 18.8 14.3 76 2.5 SE 6 9 3 5 1015.5 1015.6 0.0
21/02:30pm 18.9 19.2 14.6 76 2.5 SE 6 7 3 4 1015.8 1015.9 0.0
21/02:00pm 18.7 19.4 14.6 77 2.4 W 4 9 2 5 1016.3 1016.4 0.0
21/01:30pm 18.2 18.9 14.5 79 2.1 WSW 4 6 2 3 1016.6 1016.7 0.0
21/01:00pm 17.6 18.5 13.9 79 2.1 WNW 2 6 1 3 1017.1 1017.2 0.0
21/12:30pm 17.3 17.8 14.9 86 1.4 W 6 7 3 4 1017.6 1017.6 0.0
21/12:00pm 16.9 17.3 14.7 87 1.3 WSW 6 9 3 5 1018.1 1018.1 0.0
21/11:30am 16.4 16.0 15.3 93 0.6 WSW 11 15 6 8 1018.7 1018.8 0.0
21/11:00am 16.3 16.1 15.8 97 0.3 WSW 11 15 6 8 1019.2 1019.3 0.0
21/10:30am 15.9 16.2 15.9 100 0.0 SW 9 13 5 7 1019.6 1019.7 0.0
21/10:00am 15.2 15.6 15.2 100 0.0 SW 7 9 4 5 1020.1 1020.2 0.0
21/09:30am 15.2 15.4 14.2 94 0.6 SW 6 9 3 5 1020.0 1020.1 0.0
21/09:00am 15.0 14.8 14.7 98 0.2 SW 9 13 5 7 1020.0 1020.1 13.2
21/08:30am 14.4 13.7 14.4 100 0.0 WSW 11 15 6 8 1020.1 1020.2 13.2
21/08:00am 13.9 13.4 13.9 100 0.0 WSW 9 13 5 7 1019.8 1019.9 13.2
21/07:30am 13.6 13.0 13.6 100 0.0 WSW 9 11 5 6 1019.9 1020.0 13.2
21/07:00am 13.5 13.8 13.5 100 0.0 WSW 4 6 2 3 1019.8 1019.9 13.0
21/06:30am 13.8 13.2 13.5 98 0.2 SW 9 11 5 6 1019.5 1019.6 12.8
21/06:00am 13.8 13.6 13.5 98 0.2 SW 7 11 4 6 1019.3 1019.4 12.8
21/05:30am 13.9 13.8 13.3 96 0.3 SW 6 6 3 3 1019.3 1019.4 12.8
21/05:00am 13.9 13.7 13.1 95 0.4 SW 6 6 3 3 1019.3 1019.4 12.8
21/04:30am 14.0 13.7 13.2 95 0.4 SW 7 9 4 5 1019.2 1019.3 12.8
21/04:00am 14.0 13.3 13.2 95 0.4 SW 9 13 5 7 1019.2 1019.3 12.8
21/03:30am 14.1 13.0 13.1 94 0.6 WSW 11 13 6 7 1019.3 1019.4 12.8
21/03:00am 14.2 13.5 13.1 93 0.6 WSW 9 13 5 7 1019.7 1019.8 12.8

Other Formats:

Comma delimited format used in spreadsheet applications
http://www.bom.gov.au/fwo/IDN60801/IDN60801.94752.axf

JavaScript Object Notation format (JSON) in row-major order
http://www.bom.gov.au/fwo/IDN60801/IDN60801.94752.json